sensor_id;sensor_type;location;lat;lon;timestamp;pressure;altitude;pressure_sealevel;temperature;humidity
54389;BME280;40975;50.390;8.640;2024-01-30T00:01:06;100405.88;;;-0.77;100.00
54389;BME280;40975;50.390;8.640;2024-01-30T00:03:31;100404.16;;;-0.79;100.00
54389;BME280;40975;50.390;8.640;2024-01-30T00:05:56;100406.69;;;-0.75;100.00
54389;BME280;40975;50.390;8.640;2024-01-30T00:08:22;100406.88;;;-0.82;100.00
54389;BME280;40975;50.390;8.640;2024-01-30T00:10:47;100401.66;;;-0.83;100.00
54389;BME280;40975;50.390;8.640;2024-01-30T00:13:12;100395.66;;;-0.85;100.00
54389;BME280;40975;50.390;8.640;2024-01-30T00:15:39;100402.69;;;-0.89;100.00
54389;BME280;40975;50.390;8.640;2024-01-30T00:18:04;100400.09;;;-0.89;100.00
54389;BME280;40975;50.390;8.640;2024-01-30T00:20:29;100398.69;;;-1.01;100.00
54389;BME280;40975;50.390;8.640;2024-01-30T00:22:55;100405.56;;;-0.98;100.00
54389;BME280;40975;50.390;8.640;2024-01-30T00:25:20;100403.81;;;-0.98;100.00
54389;BME280;40975;50.390;8.640;2024-01-30T00:27:45;100400.50;;;-1.04;100.00
54389;BME280;40975;50.390;8.640;2024-01-30T00:30:11;100397.78;;;-1.00;100.00
54389;BME280;40975;50.390;8.640;2024-01-30T00:32:37;100398.69;;;-1.01;100.00
54389;BME280;40975;50.390;8.640;2024-01-30T00:35:02;100400.38;;;-1.00;100.00
54389;BME280;40975;50.390;8.640;2024-01-30T00:37:27;100402.06;;;-0.97;100.00
54389;BME280;40975;50.390;8.640;2024-01-30T00:39:53;100400.38;;;-1.00;100.00
54389;BME280;40975;50.390;8.640;2024-01-30T00:42:18;100402.94;;;-0.98;100.00
54389;BME280;40975;50.390;8.640;2024-01-30T00:44:44;100395.22;;;-1.01;100.00
54389;BME280;40975;50.390;8.640;2024-01-30T00:47:10;100389.25;;;-1.05;100.00
54389;BME280;40975;50.390;8.640;2024-01-30T00:49:36;100402.16;;;-1.00;100.00
54389;BME280;40975;50.390;8.640;2024-01-30T00:52:01;100397.84;;;-1.03;100.00
54389;BME280;40975;50.390;8.640;2024-01-30T00:54:26;100397.91;;;-1.04;100.00
54389;BME280;40975;50.390;8.640;2024-01-30T00:56:51;100398.81;;;-1.05;100.00
54389;BME280;40975;50.390;8.640;2024-01-30T00:59:17;100405.78;;;-1.06;100.00
54389;BME280;40975;50.390;8.640;2024-01-30T01:01:42;100400.59;;;-1.07;100.00
54389;BME280;40975;50.390;8.640;2024-01-30T01:04:07;100405.72;;;-1.04;100.00
54389;BME280;40975;50.390;8.640;2024-01-30T01:06:33;100397.16;;;-1.08;100.00
54389;BME280;40975;50.390;8.640;2024-01-30T01:08:58;100402.31;;;-1.06;100.00
54389;BME280;40975;50.390;8.640;2024-01-30T01:11:24;100398.22;;;-1.15;100.00
54389;BME280;40975;50.390;8.640;2024-01-30T01:13:49;100393.78;;;-1.13;100.00
54389;BME280;40975;50.390;8.640;2024-01-30T01:16:14;100392.13;;;-1.16;100.00
54389;BME280;40975;50.390;8.640;2024-01-30T01:18:39;100391.31;;;-1.18;100.00
54389;BME280;40975;50.390;8.640;2024-01-30T01:21:05;100397.47;;;-1.20;100.00
54389;BME280;40975;50.390;8.640;2024-01-30T01:23:31;100394.00;;;-1.21;100.00
54389;BME280;40975;50.390;8.640;2024-01-30T01:25:56;100394.00;;;-1.21;100.00
54389;BME280;40975;50.390;8.640;2024-01-30T01:28:21;100393.34;;;-1.29;100.00
54389;BME280;40975;50.390;8.640;2024-01-30T01:30:47;100401.84;;;-1.21;100.00
54389;BME280;40975;50.390;8.640;2024-01-30T01:33:12;100397.50;;;-1.22;100.00
54389;BME280;40975;50.390;8.640;2024-01-30T01:35:39;100390.72;;;-1.29;100.00
54389;BME280;40975;50.390;8.640;2024-01-30T01:38:05;100395.59;;;-1.15;100.00
54389;BME280;40975;50.390;8.640;2024-01-30T01:40:30;100390.41;;;-1.15;100.00
54389;BME280;40975;50.390;8.640;2024-01-30T01:42:56;100390.53;;;-1.20;100.00
54389;BME280;40975;50.390;8.640;2024-01-30T01:45:22;100387.88;;;-1.18;100.00
54389;BME280;40975;50.390;8.640;2024-01-30T01:47:50;100390.53;;;-1.21;100.00
54389;BME280;40975;50.390;8.640;2024-01-30T01:50:18;100389.69;;;-1.22;100.00
54389;BME280;40975;50.390;8.640;2024-01-30T01:52:47;100389.00;;;-1.29;100.00
54389;BME280;40975;50.390;8.640;2024-01-30T01:55:13;100386.31;;;-1.26;100.00
54389;BME280;40975;50.390;8.640;2024-01-30T01:57:40;100390.59;;;-1.25;100.00
54389;BME280;40975;50.390;8.640;2024-01-30T02:00:06;100387.22;;;-1.28;100.00
54389;BME280;40975;50.390;8.640;2024-01-30T02:02:35;100384.72;;;-1.31;100.00
54389;BME280;40975;50.390;8.640;2024-01-30T02:05:01;100383.84;;;-1.30;100.00
54389;BME280;40975;50.390;8.640;2024-01-30T02:07:27;100382.06;;;-1.30;100.00
54389;BME280;40975;50.390;8.640;2024-01-30T02:09:53;100371.59;;;-1.27;100.00
54389;BME280;40975;50.390;8.640;2024-01-30T02:12:18;100384.50;;;-1.23;100.00
54389;BME280;40975;50.390;8.640;2024-01-30T02:14:47;100379.28;;;-1.23;100.00
54389;BME280;40975;50.390;8.640;2024-01-30T02:17:13;100381.00;;;-1.22;100.00
54389;BME280;40975;50.390;8.640;2024-01-30T02:19:42;100381.13;;;-1.26;100.00
54389;BME280;40975;50.390;8.640;2024-01-30T02:22:07;100379.47;;;-1.30;100.00
54389;BME280;40975;50.390;8.640;2024-01-30T02:24:33;100382.97;;;-1.31;100.00
54389;BME280;40975;50.390;8.640;2024-01-30T02:26:58;100381.25;;;-1.32;100.00
54389;BME280;40975;50.390;8.640;2024-01-30T02:29:24;100373.59;;;-1.38;100.00
54389;BME280;40975;50.390;8.640;2024-01-30T02:31:49;100371.13;;;-1.43;100.00
54389;BME280;40975;50.390;8.640;2024-01-30T02:34:15;100377.09;;;-1.39;100.00
54389;BME280;40975;50.390;8.640;2024-01-30T02:36:43;100374.63;;;-1.44;100.00
54389;BME280;40975;50.390;8.640;2024-01-30T02:39:09;100370.25;;;-1.43;100.00
54389;BME280;40975;50.390;8.640;2024-01-30T02:41:35;100368.66;;;-1.47;100.00
54389;BME280;40975;50.390;8.640;2024-01-30T02:44:00;100372.97;;;-1.46;100.00
54389;BME280;40975;50.390;8.640;2024-01-30T02:46:26;100374.75;;;-1.48;100.00
54389;BME280;40975;50.390;8.640;2024-01-30T02:48:51;100377.47;;;-1.54;100.00
54389;BME280;40975;50.390;8.640;2024-01-30T02:51:17;100371.38;;;-1.52;100.00
54389;BME280;40975;50.390;8.640;2024-01-30T02:53:42;100373.97;;;-1.53;100.00
54389;BME280;40975;50.390;8.640;2024-01-30T02:56:07;100369.59;;;-1.51;100.00
54389;BME280;40975;50.390;8.640;2024-01-30T02:58:35;100366.16;;;-1.52;100.00
54389;BME280;40975;50.390;8.640;2024-01-30T03:01:01;100362.84;;;-1.59;100.00
54389;BME280;40975;50.390;8.640;2024-01-30T03:03:26;100370.59;;;-1.55;100.00
54389;BME280;40975;50.390;8.640;2024-01-30T03:05:51;100363.09;;;-1.68;100.00
54389;BME280;40975;50.390;8.640;2024-01-30T03:08:16;100349.25;;;-1.70;100.00
54389;BME280;40975;50.390;8.640;2024-01-30T03:10:42;100356.13;;;-1.67;100.00
54389;BME280;40975;50.390;8.640;2024-01-30T03:13:07;100362.78;;;-1.57;100.00
54389;BME280;40975;50.390;8.640;2024-01-30T03:15:32;100367.06;;;-1.54;100.00
54389;BME280;40975;50.390;8.640;2024-01-30T03:17:58;100362.78;;;-1.57;100.00
54389;BME280;40975;50.390;8.640;2024-01-30T03:20:23;100360.28;;;-1.60;100.00
54389;BME280;40975;50.390;8.640;2024-01-30T03:22:49;100369.00;;;-1.63;100.00
54389;BME280;40975;50.390;8.640;2024-01-30T03:25:14;100368.22;;;-1.65;100.00
54389;BME280;40975;50.390;8.640;2024-01-30T03:27:40;100364.69;;;-1.62;100.00
54389;BME280;40975;50.390;8.640;2024-01-30T03:30:05;100370.78;;;-1.63;100.00
54389;BME280;40975;50.390;8.640;2024-01-30T03:32:31;100362.22;;;-1.68;100.00
54389;BME280;40975;50.390;8.640;2024-01-30T03:34:56;100363.97;;;-1.69;100.00
54389;BME280;40975;50.390;8.640;2024-01-30T03:37:23;100361.59;;;-1.78;100.00
54389;BME280;40975;50.390;8.640;2024-01-30T03:39:49;100370.28;;;-1.79;100.00
54389;BME280;40975;50.390;8.640;2024-01-30T03:42:14;100365.09;;;-1.79;100.00
54389;BME280;40975;50.390;8.640;2024-01-30T03:44:39;100362.38;;;-1.75;100.00
54389;BME280;40975;50.390;8.640;2024-01-30T03:47:05;100355.28;;;-1.69;100.00
54389;BME280;40975;50.390;8.640;2024-01-30T03:49:30;100356.22;;;-1.70;100.00
54389;BME280;40975;50.390;8.640;2024-01-30T03:51:55;100356.34;;;-1.77;100.00
54389;BME280;40975;50.390;8.640;2024-01-30T03:54:21;100350.38;;;-1.80;100.00
54389;BME280;40975;50.390;8.640;2024-01-30T03:56:46;100346.69;;;-1.72;100.00
54389;BME280;40975;50.390;8.640;2024-01-30T03:59:11;100352.59;;;-1.65;100.00
54389;BME280;40975;50.390;8.640;2024-01-30T04:01:37;100355.22;;;-1.66;100.00
54389;BME280;40975;50.390;8.640;2024-01-30T04:04:02;100338.13;;;-1.77;100.00
54389;BME280;40975;50.390;8.640;2024-01-30T04:06:28;100342.50;;;-1.79;100.00
54389;BME280;40975;50.390;8.640;2024-01-30T04:08:53;100346.72;;;-1.73;100.00
54389;BME280;40975;50.390;8.640;2024-01-30T04:11:19;100342.38;;;-1.73;100.00
54389;BME280;40975;50.390;8.640;2024-01-30T04:13:45;100348.53;;;-1.77;100.00
54389;BME280;40975;50.390;8.640;2024-01-30T04:16:22;100346.13;;;-1.84;100.00
54389;BME280;40975;50.390;8.640;2024-01-30T04:18:47;100349.59;;;-1.84;100.00
54389;BME280;40975;50.390;8.640;2024-01-30T04:21:13;100346.28;;;-1.91;100.00
54389;BME280;40975;50.390;8.640;2024-01-30T04:23:40;100340.22;;;-1.91;100.00
54389;BME280;40975;50.390;8.640;2024-01-30T04:26:05;100347.16;;;-1.92;100.00
54389;BME280;40975;50.390;8.640;2024-01-30T04:28:31;100340.19;;;-1.90;100.00
54389;BME280;40975;50.390;8.640;2024-01-30T04:30:56;100348.75;;;-1.86;100.00
54389;BME280;40975;50.390;8.640;2024-01-30T04:33:21;100343.66;;;-1.91;100.00
54389;BME280;40975;50.390;8.640;2024-01-30T04:35:47;100344.66;;;-1.95;100.00
54389;BME280;40975;50.390;8.640;2024-01-30T04:38:12;100342.94;;;-1.96;100.00
54389;BME280;40975;50.390;8.640;2024-01-30T04:40:39;100343.06;;;-2.00;100.00
54389;BME280;40975;50.390;8.640;2024-01-30T04:43:05;100343.00;;;-1.99;100.00
54389;BME280;40975;50.390;8.640;2024-01-30T04:45:30;100328.22;;;-1.97;100.00
54389;BME280;40975;50.390;8.640;2024-01-30T04:47:55;100337.84;;;-2.00;100.00
54389;BME280;40975;50.390;8.640;2024-01-30T04:50:21;100339.53;;;-1.99;100.00
54389;BME280;40975;50.390;8.640;2024-01-30T04:52:46;100338.69;;;-2.00;100.00
54389;BME280;40975;50.390;8.640;2024-01-30T04:55:11;100346.34;;;-1.94;100.00
54389;BME280;40975;50.390;8.640;2024-01-30T04:57:37;100348.09;;;-1.94;100.00
54389;BME280;40975;50.390;8.640;2024-01-30T05:00:02;100341.19;;;-1.95;100.00
54389;BME280;40975;50.390;8.640;2024-01-30T05:02:28;100341.94;;;-1.90;100.00
54389;BME280;40975;50.390;8.640;2024-01-30T05:04:54;100345.44;;;-1.93;100.00
54389;BME280;40975;50.390;8.640;2024-01-30T05:07:19;100345.44;;;-1.93;100.00
54389;BME280;40975;50.390;8.640;2024-01-30T05:09:45;100335.91;;;-1.92;100.00
54389;BME280;40975;50.390;8.640;2024-01-30T05:12:10;100340.13;;;-1.88;100.00
54389;BME280;40975;50.390;8.640;2024-01-30T05:14:35;100344.44;;;-1.87;100.00
54389;BME280;40975;50.390;8.640;2024-01-30T05:17:01;100342.13;;;-1.98;100.00
54389;BME280;40975;50.390;8.640;2024-01-30T05:19:28;100343.78;;;-1.95;100.00
54389;BME280;40975;50.390;8.640;2024-01-30T05:21:53;100350.59;;;-1.90;100.00
54389;BME280;40975;50.390;8.640;2024-01-30T05:24:18;100344.53;;;-1.90;100.00
54389;BME280;40975;50.390;8.640;2024-01-30T05:26:44;100344.59;;;-1.93;100.00
54389;BME280;40975;50.390;8.640;2024-01-30T05:29:09;100341.97;;;-1.92;100.00
54389;BME280;40975;50.390;8.640;2024-01-30T05:31:34;100335.81;;;-1.88;100.00
54389;BME280;40975;50.390;8.640;2024-01-30T05:34:00;100342.63;;;-1.83;100.00
54389;BME280;40975;50.390;8.640;2024-01-30T05:36:25;100334.03;;;-1.85;100.00
54389;BME280;40975;50.390;8.640;2024-01-30T05:38:51;100346.03;;;-1.81;100.00
54389;BME280;40975;50.390;8.640;2024-01-30T05:41:16;100348.72;;;-1.84;100.00
54389;BME280;40975;50.390;8.640;2024-01-30T05:43:41;100340.84;;;-1.81;100.00
54389;BME280;40975;50.390;8.640;2024-01-30T05:46:07;100342.56;;;-1.80;100.00
54389;BME280;40975;50.390;8.640;2024-01-30T05:48:32;100356.53;;;-1.84;100.00
54389;BME280;40975;50.390;8.640;2024-01-30T05:50:58;100356.69;;;-1.91;100.00
54389;BME280;40975;50.390;8.640;2024-01-30T05:53:25;100357.56;;;-1.92;100.00
54389;BME280;40975;50.390;8.640;2024-01-30T05:55:50;100360.22;;;-1.93;100.00
54389;BME280;40975;50.390;8.640;2024-01-30T05:58:15;100355.94;;;-1.96;100.00
54389;BME280;40975;50.390;8.640;2024-01-30T06:00:41;100355.09;;;-1.96;100.00
54389;BME280;40975;50.390;8.640;2024-01-30T06:03:07;100359.47;;;-1.98;100.00
54389;BME280;40975;50.390;8.640;2024-01-30T06:05:32;100352.69;;;-2.06;100.00
54389;BME280;40975;50.390;8.640;2024-01-30T06:07:57;100358.72;;;-2.04;100.00
54389;BME280;40975;50.390;8.640;2024-01-30T06:10:23;100356.28;;;-2.10;100.00
54389;BME280;40975;50.390;8.640;2024-01-30T06:12:48;100360.69;;;-2.13;100.00
54389;BME280;40975;50.390;8.640;2024-01-30T06:15:13;100366.97;;;-2.24;100.00
54389;BME280;40975;50.390;8.640;2024-01-30T06:17:39;100356.56;;;-2.24;100.00
54389;BME280;40975;50.390;8.640;2024-01-30T06:20:05;100355.69;;;-2.23;100.00
54389;BME280;40975;50.390;8.640;2024-01-30T06:22:32;100357.34;;;-2.19;100.00
54389;BME280;40975;50.390;8.640;2024-01-30T06:24:57;100365.16;;;-2.19;100.00
54389;BME280;40975;50.390;8.640;2024-01-30T06:27:22;100355.50;;;-2.15;100.00
54389;BME280;40975;50.390;8.640;2024-01-30T06:29:48;100353.63;;;-2.08;100.00
54389;BME280;40975;50.390;8.640;2024-01-30T06:32:13;100358.84;;;-2.08;100.00
54389;BME280;40975;50.390;8.640;2024-01-30T06:34:38;100348.38;;;-2.05;100.00
54389;BME280;40975;50.390;8.640;2024-01-30T06:37:05;100341.34;;;-2.01;100.00
54389;BME280;40975;50.390;8.640;2024-01-30T06:39:30;100342.72;;;-1.86;100.00
54389;BME280;40975;50.390;8.640;2024-01-30T06:41:56;100356.72;;;-1.92;100.00
54389;BME280;40975;50.390;8.640;2024-01-30T06:44:21;100329.16;;;-2.01;100.00
54389;BME280;40975;50.390;8.640;2024-01-30T06:46:46;100341.84;;;-1.87;100.00
54389;BME280;40975;50.390;8.640;2024-01-30T06:49:12;100355.84;;;-1.93;100.00
54389;BME280;40975;50.390;8.640;2024-01-30T06:51:37;100351.53;;;-1.92;100.00
54389;BME280;40975;50.390;8.640;2024-01-30T06:54:02;100347.25;;;-1.95;100.00
54389;BME280;40975;50.390;8.640;2024-01-30T06:56:28;100345.53;;;-1.96;100.00
54389;BME280;40975;50.390;8.640;2024-01-30T06:58:53;100344.59;;;-1.93;100.00
54389;BME280;40975;50.390;8.640;2024-01-30T07:01:19;100354.91;;;-1.89;100.00
54389;BME280;40975;50.390;8.640;2024-01-30T07:03:44;100349.00;;;-1.95;100.00
54389;BME280;40975;50.390;8.640;2024-01-30T07:06:10;100356.91;;;-2.00;100.00
54389;BME280;40975;50.390;8.640;2024-01-30T07:08:38;100354.13;;;-1.92;100.00
54389;BME280;40975;50.390;8.640;2024-01-30T07:11:06;100355.78;;;-1.90;100.00
54389;BME280;40975;50.390;8.640;2024-01-30T07:13:32;100341.84;;;-1.87;100.00
54389;BME280;40975;50.390;8.640;2024-01-30T07:15:57;100350.63;;;-1.91;100.00
54389;BME280;40975;50.390;8.640;2024-01-30T07:18:22;100347.06;;;-1.87;100.00
54389;BME280;40975;50.390;8.640;2024-01-30T07:20:48;100350.53;;;-1.86;100.00
54389;BME280;40975;50.390;8.640;2024-01-30T07:23:15;100347.03;;;-1.85;100.00
54389;BME280;40975;50.390;8.640;2024-01-30T07:25:43;100350.38;;;-1.80;100.00
54389;BME280;40975;50.390;8.640;2024-01-30T07:28:08;100338.91;;;-1.73;100.00
54389;BME280;40975;50.390;8.640;2024-01-30T07:30:37;100350.78;;;-1.63;100.00
54389;BME280;40975;50.390;8.640;2024-01-30T07:33:03;100353.31;;;-1.60;100.00
54389;BME280;40975;50.390;8.640;2024-01-30T07:35:28;100347.28;;;-1.62;100.00
54389;BME280;40975;50.390;8.640;2024-01-30T07:37:53;100350.47;;;-1.50;100.00
54389;BME280;40975;50.390;8.640;2024-01-30T07:40:19;100355.63;;;-1.49;100.00
54389;BME280;40975;50.390;8.640;2024-01-30T07:42:44;100350.31;;;-1.44;100.00
54389;BME280;40975;50.390;8.640;2024-01-30T07:45:10;100356.19;;;-1.36;100.00
54389;BME280;40975;50.390;8.640;2024-01-30T07:47:35;100348.13;;;-1.27;100.00
54389;BME280;40975;50.390;8.640;2024-01-30T07:50:00;100360.03;;;-1.18;100.00
54389;BME280;40975;50.390;8.640;2024-01-30T07:52:26;100357.06;;;-1.04;100.00
54389;BME280;40975;50.390;8.640;2024-01-30T07:54:51;100361.47;;;-1.06;100.00
54389;BME280;40975;50.390;8.640;2024-01-30T07:57:17;100358.56;;;-0.95;100.00
54389;BME280;40975;50.390;8.640;2024-01-30T07:59:45;100360.16;;;-0.89;100.00
54389;BME280;40975;50.390;8.640;2024-01-30T08:02:13;100363.47;;;-0.84;100.00
54389;BME280;40975;50.390;8.640;2024-01-30T08:04:39;100363.25;;;-0.76;100.00
54389;BME280;40975;50.390;8.640;2024-01-30T08:07:04;100360.25;;;-0.63;100.00
54389;BME280;40975;50.390;8.640;2024-01-30T08:09:30;100355.84;;;-0.60;100.00
54389;BME280;40975;50.390;8.640;2024-01-30T08:11:55;100366.88;;;-0.51;100.00
54389;BME280;40975;50.390;8.640;2024-01-30T08:14:20;100364.84;;;-0.41;100.00
54389;BME280;40975;50.390;8.640;2024-01-30T08:16:46;100362.66;;;-0.26;100.00
54389;BME280;40975;50.390;8.640;2024-01-30T08:19:11;100372.06;;;-0.21;100.00
54389;BME280;40975;50.390;8.640;2024-01-30T08:21:36;100373.34;;;-0.06;100.00
54389;BME280;40975;50.390;8.640;2024-01-30T08:24:05;100373.81;;;0.07;100.00
54389;BME280;40975;50.390;8.640;2024-01-30T08:26:31;100370.84;;;0.18;100.00
54389;BME280;40975;50.390;8.640;2024-01-30T08:28:57;100376.50;;;0.31;100.00
54389;BME280;40975;50.390;8.640;2024-01-30T08:31:22;100376.03;;;0.45;100.00
54389;BME280;40975;50.390;8.640;2024-01-30T08:33:48;100378.78;;;0.42;100.00
54389;BME280;40975;50.390;8.640;2024-01-30T08:36:13;100380.13;;;0.54;100.00
54389;BME280;40975;50.390;8.640;2024-01-30T08:38:39;100376.19;;;0.67;100.00
54389;BME280;40975;50.390;8.640;2024-01-30T08:41:04;100384.63;;;0.75;100.00
54389;BME280;40975;50.390;8.640;2024-01-30T08:43:30;100379.06;;;0.85;100.00
54389;BME280;40975;50.390;8.640;2024-01-30T08:45:55;100383.91;;;0.96;100.00
54389;BME280;40975;50.390;8.640;2024-01-30T08:48:22;100388.59;;;1.11;100.00
54389;BME280;40975;50.390;8.640;2024-01-30T08:50:47;100393.66;;;1.16;100.00
54389;BME280;40975;50.390;8.640;2024-01-30T08:53:13;100383.94;;;1.19;100.00
54389;BME280;40975;50.390;8.640;2024-01-30T08:55:38;100395.53;;;1.36;100.00
54389;BME280;40975;50.390;8.640;2024-01-30T08:58:04;100399.50;;;1.48;100.00
54389;BME280;40975;50.390;8.640;2024-01-30T09:00:30;100393.28;;;1.50;100.00
54389;BME280;40975;50.390;8.640;2024-01-30T09:02:55;100400.72;;;1.61;100.00
54389;BME280;40975;50.390;8.640;2024-01-30T09:05:20;100405.91;;;1.63;100.00
54389;BME280;40975;50.390;8.640;2024-01-30T09:07:46;100407.63;;;1.64;100.00
54389;BME280;40975;50.390;8.640;2024-01-30T09:10:11;100408.56;;;1.61;100.00
54389;BME280;40975;50.390;8.640;2024-01-30T09:12:36;100400.38;;;1.70;100.00
54389;BME280;40975;50.390;8.640;2024-01-30T09:15:02;100401.44;;;1.65;100.00
54389;BME280;40975;50.390;8.640;2024-01-30T09:17:28;100405.84;;;1.64;100.00
54389;BME280;40975;50.390;8.640;2024-01-30T09:19:53;100400.44;;;1.69;100.00
54389;BME280;40975;50.390;8.640;2024-01-30T09:22:18;100408.81;;;1.79;100.00
54389;BME280;40975;50.390;8.640;2024-01-30T09:24:44;100406.78;;;1.85;100.00
54389;BME280;40975;50.390;8.640;2024-01-30T09:27:09;100409.66;;;1.79;100.00
54389;BME280;40975;50.390;8.640;2024-01-30T09:29:34;100413.44;;;1.94;100.00
54389;BME280;40975;50.390;8.640;2024-01-30T09:32:01;100418.41;;;2.00;100.00
54389;BME280;40975;50.390;8.640;2024-01-30T09:34:26;100417.34;;;2.06;100.00
54389;BME280;40975;50.390;8.640;2024-01-30T09:36:52;100413.94;;;2.04;100.00
54389;BME280;40975;50.390;8.640;2024-01-30T09:39:17;100409.28;;;2.11;100.00
54389;BME280;40975;50.390;8.640;2024-01-30T09:41:48;100414.31;;;2.17;100.00
54389;BME280;40975;50.390;8.640;2024-01-30T09:44:16;100419.06;;;2.29;100.00
54389;BME280;40975;50.390;8.640;2024-01-30T09:46:42;100418.81;;;2.36;100.00
54389;BME280;40975;50.390;8.640;2024-01-30T09:49:08;100416.78;;;2.42;100.00
54389;BME280;40975;50.390;8.640;2024-01-30T09:51:34;100411.16;;;2.52;100.00
54389;BME280;40975;50.390;8.640;2024-01-30T09:54:02;100412.53;;;2.60;100.00
54389;BME280;40975;50.390;8.640;2024-01-30T09:56:28;100425.22;;;2.71;100.00
54389;BME280;40975;50.390;8.640;2024-01-30T09:58:53;100425.41;;;3.08;100.00
54389;BME280;40975;50.390;8.640;2024-01-30T10:01:19;100421.50;;;3.37;100.00
54389;BME280;40975;50.390;8.640;2024-01-30T10:03:44;100411.41;;;4.04;100.00
54389;BME280;40975;50.390;8.640;2024-01-30T10:06:10;100413.66;;;4.31;100.00
54389;BME280;40975;50.390;8.640;2024-01-30T10:08:36;100410.28;;;4.64;100.00
54389;BME280;40975;50.390;8.640;2024-01-30T10:11:03;100395.38;;;4.47;100.00
54389;BME280;40975;50.390;8.640;2024-01-30T10:13:28;100394.06;;;4.19;100.00
54389;BME280;40975;50.390;8.640;2024-01-30T10:15:54;100401.63;;;4.08;100.00
54389;BME280;40975;50.390;8.640;2024-01-30T10:18:20;100398.22;;;4.06;100.00
54389;BME280;40975;50.390;8.640;2024-01-30T10:20:45;100394.41;;;3.94;100.00
54389;BME280;40975;50.390;8.640;2024-01-30T10:23:11;100399.47;;;3.99;100.00
54389;BME280;40975;50.390;8.640;2024-01-30T10:25:37;100391.56;;;3.80;100.00
54389;BME280;40975;50.390;8.640;2024-01-30T10:28:03;100397.84;;;3.77;100.00
54389;BME280;40975;50.390;8.640;2024-01-30T10:30:28;100391.38;;;3.84;100.00
54389;BME280;40975;50.390;8.640;2024-01-30T10:32:54;100388.03;;;3.81;100.00
54389;BME280;40975;50.390;8.640;2024-01-30T10:35:19;100383.78;;;3.78;100.00
54389;BME280;40975;50.390;8.640;2024-01-30T10:37:47;100394.34;;;3.96;100.00
54389;BME280;40975;50.390;8.640;2024-01-30T10:40:13;100379.84;;;4.06;100.00
54389;BME280;40975;50.390;8.640;2024-01-30T10:42:42;100377.78;;;3.94;100.00
54389;BME280;40975;50.390;8.640;2024-01-30T10:45:09;100378.34;;;4.00;100.00
54389;BME280;40975;50.390;8.640;2024-01-30T10:47:39;100393.69;;;4.10;100.00
54389;BME280;40975;50.390;8.640;2024-01-30T10:50:07;100392.63;;;4.14;100.00
54389;BME280;40975;50.390;8.640;2024-01-30T10:52:34;100377.91;;;4.10;100.00
54389;BME280;40975;50.390;8.640;2024-01-30T10:55:00;100384.34;;;4.22;100.00
54389;BME280;40975;50.390;8.640;2024-01-30T10:57:26;100378.16;;;4.23;100.00
54389;BME280;40975;50.390;8.640;2024-01-30T10:59:53;100389.03;;;4.15;100.00
54389;BME280;40975;50.390;8.640;2024-01-30T11:02:21;100385.22;;;4.22;100.00
54389;BME280;40975;50.390;8.640;2024-01-30T11:04:49;100387.59;;;4.27;100.00
54389;BME280;40975;50.390;8.640;2024-01-30T11:07:18;100390.38;;;4.24;100.00
54389;BME280;40975;50.390;8.640;2024-01-30T11:10:04;100395.97;;;4.35;100.00
54389;BME280;40975;50.390;8.640;2024-01-30T11:12:40;100404.69;;;4.35;100.00
54389;BME280;40975;50.390;8.640;2024-01-30T11:15:10;100387.38;;;4.31;100.00
54389;BME280;40975;50.390;8.640;2024-01-30T11:17:54;100392.16;;;4.23;100.00
54389;BME280;40975;50.390;8.640;2024-01-30T11:20:27;100393.41;;;4.33;100.00
54389;BME280;40975;50.390;8.640;2024-01-30T11:22:56;100385.81;;;4.27;100.00
54389;BME280;40975;50.390;8.640;2024-01-30T11:25:23;100383.63;;;4.18;100.00
54389;BME280;40975;50.390;8.640;2024-01-30T11:27:51;100389.13;;;4.13;100.00
54389;BME280;40975;50.390;8.640;2024-01-30T11:30:30;100376.41;;;4.23;100.00
54389;BME280;40975;50.390;8.640;2024-01-30T11:33:04;100384.53;;;4.36;100.00
54389;BME280;40975;50.390;8.640;2024-01-30T11:35:32;100383.19;;;4.27;100.00
54389;BME280;40975;50.390;8.640;2024-01-30T11:37:58;100391.81;;;4.48;100.00
54389;BME280;40975;50.390;8.640;2024-01-30T11:40:26;100387.47;;;4.47;100.00
54389;BME280;40975;50.390;8.640;2024-01-30T11:42:53;100385.69;;;4.65;100.00
54389;BME280;40975;50.390;8.640;2024-01-30T11:45:19;100380.03;;;4.73;100.00
54389;BME280;40975;50.390;8.640;2024-01-30T11:47:45;100373.81;;;4.92;100.00
54389;BME280;40975;50.390;8.640;2024-01-30T11:50:10;100374.91;;;5.05;100.00
54389;BME280;40975;50.390;8.640;2024-01-30T11:52:36;100379.69;;;5.14;100.00
54389;BME280;40975;50.390;8.640;2024-01-30T11:55:02;100370.63;;;5.20;100.00
54389;BME280;40975;50.390;8.640;2024-01-30T11:57:28;100373.84;;;5.25;100.00
54389;BME280;40975;50.390;8.640;2024-01-30T11:59:53;100371.56;;;5.35;100.00
54389;BME280;40975;50.390;8.640;2024-01-30T12:02:19;100374.28;;;5.50;100.00
54389;BME280;40975;50.390;8.640;2024-01-30T12:04:44;100376.19;;;5.64;100.00
54389;BME280;40975;50.390;8.640;2024-01-30T12:07:10;100368.78;;;5.70;100.00
54389;BME280;40975;50.390;8.640;2024-01-30T12:09:35;100367.84;;;5.55;100.00
54389;BME280;40975;50.390;8.640;2024-01-30T12:12:01;100371.63;;;5.83;100.00
54389;BME280;40975;50.390;8.640;2024-01-30T12:14:26;100364.91;;;5.78;100.00
54389;BME280;40975;50.390;8.640;2024-01-30T12:16:52;100364.19;;;5.90;100.00
54389;BME280;40975;50.390;8.640;2024-01-30T12:19:26;100355.44;;;6.21;100.00
54389;BME280;40975;50.390;8.640;2024-01-30T12:21:58;100352.84;;;6.05;100.00
54389;BME280;40975;50.390;8.640;2024-01-30T12:24:27;100352.06;;;6.03;100.00
54389;BME280;40975;50.390;8.640;2024-01-30T12:26:56;100351.38;;;6.16;100.00
54389;BME280;40975;50.390;8.640;2024-01-30T12:29:22;100359.56;;;6.11;100.00
54389;BME280;40975;50.390;8.640;2024-01-30T12:31:47;100347.72;;;5.86;100.00
54389;BME280;40975;50.390;8.640;2024-01-30T12:34:14;100360.38;;;5.96;100.00
54389;BME280;40975;50.390;8.640;2024-01-30T12:36:40;100349.56;;;5.84;100.00